Terminal Aerodrome Forecast
Issued by NWS Twin Cities, MN

Home | Current Version | Previous Version | Text Only | Print | Product List | Glossary Off
Versions: 1 2 3 4 5 6 7 8 9 10 11 12 13 14 15 16

000
FTUS43 KMPX 171100
TAFEAU
TAF
KEAU 171127Z 1712/1812 27011G18KT P6SM BKN025 OVC040
     FM171500 30015G23KT P6SM VCSH OVC020
     FM172200 33013G20KT P6SM OVC030
     FM180200 33010KT P6SM OVC020=

USA.gov is the U.S. government's official web portal to all federal, state and local government web resources and services.